Time;durP1;ratioP1;P1;durP2;ratioP2;P2;SDS_P1;SDS_P2;PMS_P1;PMS_P2;Temp;Humidity;BMP_temperature;BMP_pressure;BME280_temperature;BME280_humidity;BME280_pressure;Samples;Min_cycle;Max_cycle;Signal;HPM_P1;HPM_P2
2022/09/27 00:00:42;;;;;;;;;;;9.10;99.90;;;;;;5049068;28;19966;-78
2022/09/27 00:03:09;;;;;;;;;;;9.10;99.90;;;;;;5049622;28;20919;-77
2022/09/27 00:05:34;;;;;;;;;;;9.00;99.90;;;;;;5046277;28;20027;-78
2022/09/27 00:08:00;;;;;;;;;;;9.00;99.90;;;;;;5049451;28;20003;-78
2022/09/27 00:10:26;;;;;;;;;;;9.00;99.90;;;;;;5046659;28;19916;-77
2022/09/27 00:12:51;;;;;;;;;;;9.00;99.90;;;;;;5049463;28;19920;-77
2022/09/27 00:15:17;;;;;;;;;;;8.90;99.90;;;;;;5043754;28;19912;-77
2022/09/27 00:17:43;;;;;;;;;;;8.80;99.90;;;;;;5049501;28;19967;-77
2022/09/27 00:20:09;;;;;;;;;;;8.90;99.90;;;;;;5048012;28;19942;-77
2022/09/27 00:22:35;;;;;;;;;;;8.90;99.90;;;;;;5042842;28;19919;-77
2022/09/27 00:25:00;;;;;;;;;;;8.80;99.90;;;;;;5043367;28;19913;-77
2022/09/27 00:27:26;;;;;;;;;;;8.80;99.90;;;;;;5046926;28;19951;-78
2022/09/27 00:29:52;;;;;;;;;;;8.70;99.90;;;;;;5048162;28;19917;-78
2022/09/27 00:32:18;;;;;;;;;;;8.70;99.90;;;;;;5048615;28;19917;-78
2022/09/27 00:34:43;;;;;;;;;;;8.60;99.90;;;;;;5048279;28;19916;-77
2022/09/27 00:37:10;;;;;;;;;;;8.50;99.90;;;;;;5041720;28;20405;-78
2022/09/27 00:39:37;;;;;;;;;;;8.50;99.90;;;;;;5049121;28;19908;-77
2022/09/27 00:42:02;;;;;;;;;;;8.50;99.90;;;;;;5048926;28;19986;-77
2022/09/27 00:44:28;;;;;;;;;;;8.40;99.90;;;;;;5046445;28;20341;-77
2022/09/27 00:47:07;;;;;;;;;;;8.30;99.90;;;;;;5043296;28;19963;-77
2022/09/27 00:49:38;;;;;;;;;;;8.30;99.90;;;;;;5049197;28;20051;-77
2022/09/27 00:52:08;;;;;;;;;;;8.30;99.90;;;;;;5049545;28;19915;-77
2022/09/27 00:54:35;;;;;;;;;;;8.30;99.90;;;;;;5051122;28;19915;-78
2022/09/27 00:57:01;;;;;;;;;;;8.30;99.90;;;;;;5045096;28;19964;-77
2022/09/27 00:59:35;;;;;;;;;;;8.30;99.90;;;;;;5046474;28;19912;-77
2022/09/27 01:02:01;;;;;;;;;;;8.30;99.90;;;;;;5044923;28;19916;-78
2022/09/27 01:04:29;;;;;;;;;;;8.30;99.90;;;;;;5044418;28;19916;-77
2022/09/27 01:06:55;;;;;;;;;;;8.40;99.90;;;;;;5048303;28;19979;-79
2022/09/27 01:09:21;;;;;;;;;;;8.30;99.90;;;;;;5048817;28;19917;-78
2022/09/27 01:11:50;;;;;;;;;;;8.40;99.90;;;;;;5042300;28;19909;-77
2022/09/27 01:14:15;;;;;;;;;;;8.40;99.90;;;;;;5045817;28;19919;-78
2022/09/27 01:16:57;;;;;;;;;;;8.40;99.90;;;;;;5042063;28;19908;-77
2022/09/27 01:19:22;;;;;;;;;;;8.40;99.90;;;;;;5042717;28;19917;-78
2022/09/27 01:22:20;;;;;;;;;;;8.40;99.90;;;;;;5047839;28;19908;-78
2022/09/27 01:25:02;;;;;;;;;;;8.40;99.90;;;;;;4991331;28;19917;-77
2022/09/27 01:27:38;;;;;;;;;;;8.40;99.90;;;;;;5044631;28;19983;-77
2022/09/27 01:30:12;;;;;;;;;;;8.40;99.90;;;;;;5037317;28;19919;-78
2022/09/27 01:32:48;;;;;;;;;;;8.40;99.90;;;;;;5045373;28;19995;-78
2022/09/27 01:35:32;;;;;;;;;;;8.50;99.90;;;;;;5046379;28;20315;-78
2022/09/27 01:38:06;;;;;;;;;;;8.40;99.90;;;;;;5043682;28;19956;-78
2022/09/27 01:40:47;;;;;;;;;;;8.50;99.90;;;;;;5045158;28;19919;-78
2022/09/27 01:43:16;;;;;;;;;;;8.40;99.90;;;;;;5047755;28;20001;-78
2022/09/27 01:45:56;;;;;;;;;;;8.50;99.90;;;;;;5044698;28;19916;-78
2022/09/27 01:48:23;;;;;;;;;;;8.50;99.90;;;;;;5048634;28;19913;-78
2022/09/27 01:50:58;;;;;;;;;;;8.40;99.90;;;;;;5048845;28;19916;-79
2022/09/27 01:53:31;;;;;;;;;;;8.50;99.90;;;;;;5045715;28;19908;-78
2022/09/27 01:55:56;;;;;;;;;;;8.50;99.90;;;;;;5048857;28;19913;-77
2022/09/27 01:58:28;;;;;;;;;;;8.50;99.90;;;;;;5050596;28;20376;-77
2022/09/27 02:00:54;;;;;;;;;;;8.50;99.90;;;;;;5044955;28;19956;-77
2022/09/27 02:03:25;;;;;;;;;;;8.50;99.90;;;;;;5051677;28;19916;-78
2022/09/27 02:05:53;;;;;;;;;;;8.50;99.90;;;;;;5046357;28;19921;-77
2022/09/27 02:08:21;;;;;;;;;;;8.50;99.90;;;;;;5044606;28;19920;-77
2022/09/27 02:10:48;;;;;;;;;;;8.50;99.90;;;;;;5045523;28;19962;-77
2022/09/27 02:13:16;;;;;;;;;;;8.50;99.90;;;;;;5049878;28;19963;-78
2022/09/27 02:16:08;;;;;;;;;;;8.50;99.90;;;;;;5047671;28;19920;-78
2022/09/27 02:18:43;;;;;;;;;;;8.50;99.90;;;;;;5024720;28;19909;-78
2022/09/27 02:21:10;;;;;;;;;;;8.50;99.90;;;;;;5047491;28;19923;-77
2022/09/27 02:23:42;;;;;;;;;;;8.50;99.90;;;;;;5047483;28;19923;-77
2022/09/27 02:26:12;;;;;;;;;;;8.60;99.90;;;;;;5039087;28;19912;-77
2022/09/27 02:28:41;;;;;;;;;;;8.60;99.90;;;;;;5050153;28;19916;-77
2022/09/27 02:31:06;;;;;;;;;;;8.60;99.90;;;;;;5046525;28;19916;-77
2022/09/27 02:33:36;;;;;;;;;;;8.60;99.90;;;;;;5048591;28;19967;-77
2022/09/27 02:36:02;;;;;;;;;;;8.60;99.90;;;;;;5042732;28;19912;-77
2022/09/27 02:38:27;;;;;;;;;;;8.60;99.90;;;;;;5051158;28;19909;-77
2022/09/27 02:40:53;;;;;;;;;;;8.60;99.90;;;;;;5050787;28;19912;-77
2022/09/27 02:43:19;;;;;;;;;;;8.60;99.90;;;;;;5050246;28;20300;-78
2022/09/27 02:45:45;;;;;;;;;;;8.60;99.90;;;;;;5045150;28;19962;-77
2022/09/27 02:48:18;;;;;;;;;;;8.60;99.90;;;;;;5043303;28;19916;-77
2022/09/27 02:51:05;;;;;;;;;;;8.70;99.90;;;;;;5047084;28;19916;-78
2022/09/27 02:53:32;;;;;;;;;;;8.70;99.90;;;;;;5046433;28;19971;-77
2022/09/27 02:56:03;;;;;;;;;;;8.70;99.90;;;;;;5048486;28;19912;-77
2022/09/27 02:58:36;;;;;;;;;;;8.70;99.90;;;;;;5050673;28;19909;-77
2022/09/27 03:01:13;;;;;;;;;;;8.60;99.90;;;;;;5048633;28;20027;-77
2022/09/27 03:03:44;;;;;;;;;;;8.70;99.90;;;;;;5048530;28;19998;-77
2022/09/27 03:06:10;;;;;;;;;;;8.70;99.90;;;;;;5046921;28;19917;-77
2022/09/27 03:08:37;;;;;;;;;;;8.60;99.90;;;;;;5050391;28;20263;-77
2022/09/27 03:11:02;;;;;;;;;;;8.60;99.90;;;;;;5050079;28;19974;-77
2022/09/27 03:13:28;;;;;;;;;;;8.60;99.90;;;;;;5048074;28;19948;-77
2022/09/27 03:15:54;;;;;;;;;;;8.60;99.90;;;;;;5044970;28;19959;-77
2022/09/27 03:18:19;;;;;;;;;;;8.50;99.90;;;;;;5050481;28;19993;-77
2022/09/27 03:20:45;;;;;;;;;;;8.50;99.90;;;;;;5040870;28;19916;-77
2022/09/27 03:23:10;;;;;;;;;;;8.50;99.90;;;;;;5050265;28;19913;-77
2022/09/27 03:25:36;;;;;;;;;;;8.50;99.90;;;;;;5046536;28;19923;-77
2022/09/27 03:28:01;;;;;;;;;;;8.50;99.90;;;;;;5040968;28;19952;-77
2022/09/27 03:30:27;;;;;;;;;;;8.50;99.90;;;;;;5045717;28;19913;-78
2022/09/27 03:32:52;;;;;;;;;;;8.50;99.90;;;;;;5049970;28;19941;-77
2022/09/27 03:35:18;;;;;;;;;;;8.50;99.90;;;;;;5046310;28;20015;-77
2022/09/27 03:37:43;;;;;;;;;;;8.50;99.90;;;;;;5047898;28;20290;-77
2022/09/27 03:40:09;;;;;;;;;;;8.50;99.90;;;;;;5047746;28;19920;-77
2022/09/27 03:42:35;;;;;;;;;;;8.50;99.90;;;;;;5049260;28;19912;-77
2022/09/27 03:45:00;;;;;;;;;;;8.50;99.90;;;;;;5042728;28;20105;-77
2022/09/27 03:47:26;;;;;;;;;;;8.50;99.90;;;;;;5043815;28;19917;-77
2022/09/27 03:49:52;;;;;;;;;;;8.50;99.90;;;;;;5050389;28;19912;-77
2022/09/27 03:52:17;;;;;;;;;;;8.50;99.90;;;;;;5047958;28;19931;-78
2022/09/27 03:54:43;;;;;;;;;;;8.40;99.90;;;;;;5052125;28;19963;-79
2022/09/27 03:57:09;;;;;;;;;;;8.50;99.90;;;;;;5046415;28;20356;-77
2022/09/27 03:59:34;;;;;;;;;;;8.50;99.90;;;;;;5048587;28;19919;-77
2022/09/27 04:02:00;;;;;;;;;;;8.40;99.90;;;;;;5045054;28;20384;-77
2022/09/27 04:04:25;;;;;;;;;;;8.40;99.90;;;;;;5047020;28;19913;-77
2022/09/27 04:06:51;;;;;;;;;;;8.40;99.90;;;;;;5049454;28;19923;-77
2022/09/27 04:09:16;;;;;;;;;;;8.50;99.90;;;;;;5048958;28;19948;-77
2022/09/27 04:11:42;;;;;;;;;;;8.40;99.90;;;;;;5048694;28;20007;-77
2022/09/27 04:14:08;;;;;;;;;;;8.40;99.90;;;;;;5040317;28;20379;-78
2022/09/27 04:16:34;;;;;;;;;;;8.40;99.90;;;;;;5042358;28;19913;-77
2022/09/27 04:19:00;;;;;;;;;;;8.40;99.90;;;;;;5047227;28;19919;-77
2022/09/27 04:21:26;;;;;;;;;;;8.30;99.90;;;;;;5049079;28;19981;-77
2022/09/27 04:23:52;;;;;;;;;;;8.30;99.90;;;;;;5045781;28;20005;-77
2022/09/27 04:26:18;;;;;;;;;;;8.20;99.90;;;;;;5045040;28;20388;-77
2022/09/27 04:28:45;;;;;;;;;;;8.10;99.90;;;;;;5046665;28;19921;-77
2022/09/27 04:31:10;;;;;;;;;;;8.00;99.90;;;;;;5048702;28;19919;-78
2022/09/27 04:33:36;;;;;;;;;;;8.00;99.90;;;;;;5047192;28;19909;-78
2022/09/27 04:38:46;;;;;;;;;;;7.90;99.90;;;;;;5046816;28;19920;-78
2022/09/27 04:41:13;;;;;;;;;;;7.80;99.90;;;;;;5042164;28;20269;-81
2022/09/27 04:43:38;;;;;;;;;;;7.70;99.90;;;;;;5047761;28;19921;-77
2022/09/27 04:46:04;;;;;;;;;;;7.70;99.90;;;;;;5033101;28;19919;-78
2022/09/27 04:48:29;;;;;;;;;;;7.70;99.90;;;;;;5042013;28;19923;-77
2022/09/27 04:50:59;;;;;;;;;;;7.60;99.90;;;;;;5044416;28;20384;-77
2022/09/27 04:53:25;;;;;;;;;;;7.60;99.90;;;;;;5040015;28;19946;-78
2022/09/27 04:55:54;;;;;;;;;;;7.60;99.90;;;;;;5048124;28;19913;-77
2022/09/27 04:58:20;;;;;;;;;;;7.60;99.90;;;;;;5036499;28;19919;-78
2022/09/27 05:00:46;;;;;;;;;;;7.50;99.90;;;;;;5036218;28;19927;-78
2022/09/27 05:03:12;;;;;;;;;;;7.50;99.90;;;;;;5041128;28;19912;-78
2022/09/27 05:05:38;;;;;;;;;;;7.50;99.90;;;;;;5043352;28;19940;-78
2022/09/27 05:08:03;;;;;;;;;;;7.40;99.90;;;;;;5033645;28;20053;-78
2022/09/27 05:10:29;;;;;;;;;;;7.40;99.90;;;;;;5047204;28;19948;-78
2022/09/27 05:12:54;;;;;;;;;;;7.40;99.90;;;;;;5042570;28;20494;-78
2022/09/27 05:15:20;;;;;;;;;;;7.30;99.90;;;;;;5038047;28;20340;-79
2022/09/27 05:17:45;;;;;;;;;;;7.40;99.90;;;;;;5045372;28;19923;-78
2022/09/27 05:20:11;;;;;;;;;;;7.50;99.90;;;;;;5042209;28;19956;-78
2022/09/27 05:22:38;;;;;;;;;;;7.50;99.90;;;;;;5044053;28;19951;-80
2022/09/27 05:25:04;;;;;;;;;;;7.50;99.90;;;;;;5040867;28;20811;-80
2022/09/27 05:27:29;;;;;;;;;;;7.60;99.90;;;;;;5039189;28;19925;-80
2022/09/27 05:29:55;;;;;;;;;;;7.60;99.90;;;;;;5034171;28;20280;-81
2022/09/27 05:32:21;;;;;;;;;;;7.70;99.90;;;;;;5029291;28;20327;-79
2022/09/27 05:34:46;;;;;;;;;;;7.80;99.90;;;;;;5041656;28;20323;-80
2022/09/27 05:37:13;;;;;;;;;;;7.90;99.90;;;;;;5040541;28;19979;-84
2022/09/27 05:39:38;;;;;;;;;;;7.90;99.90;;;;;;5047890;28;20139;-81
2022/09/27 05:42:06;;;;;;;;;;;7.90;99.90;;;;;;5037424;28;20003;-79
2022/09/27 05:44:31;;;;;;;;;;;7.90;99.90;;;;;;5045605;28;19928;-79
2022/09/27 05:46:59;;;;;;;;;;;7.90;99.90;;;;;;5041723;28;19916;-79
2022/09/27 05:49:25;;;;;;;;;;;8.00;99.90;;;;;;5038566;28;19916;-77
2022/09/27 05:51:51;;;;;;;;;;;8.00;99.90;;;;;;5045411;28;19921;-77
2022/09/27 05:54:16;;;;;;;;;;;8.10;99.90;;;;;;5041337;28;19924;-77
2022/09/27 05:56:42;;;;;;;;;;;8.20;99.90;;;;;;5044271;28;19909;-77
2022/09/27 05:59:07;;;;;;;;;;;8.10;99.90;;;;;;5046978;28;19920;-77
2022/09/27 06:01:34;;;;;;;;;;;8.10;99.90;;;;;;5046946;28;19920;-78
2022/09/27 06:04:00;;;;;;;;;;;8.20;99.90;;;;;;5045623;28;20019;-78
2022/09/27 06:06:25;;;;;;;;;;;8.20;99.90;;;;;;5051289;28;19960;-78
2022/09/27 06:08:51;;;;;;;;;;;8.20;99.90;;;;;;5040720;28;19916;-78
2022/09/27 06:11:16;;;;;;;;;;;8.20;99.90;;;;;;5049912;28;19916;-79
2022/09/27 06:13:42;;;;;;;;;;;8.20;99.90;;;;;;5049242;28;20439;-78
2022/09/27 06:16:09;;;;;;;;;;;8.10;99.90;;;;;;5047115;28;19920;-78
2022/09/27 06:18:35;;;;;;;;;;;8.10;99.90;;;;;;5047285;28;19909;-76
2022/09/27 06:21:01;;;;;;;;;;;8.00;99.90;;;;;;5045050;28;19916;-78
2022/09/27 06:23:27;;;;;;;;;;;7.90;99.90;;;;;;5045802;28;19916;-78
2022/09/27 06:25:53;;;;;;;;;;;7.90;99.90;;;;;;5039222;28;19913;-78
2022/09/27 06:28:19;;;;;;;;;;;7.90;99.90;;;;;;5043191;28;19979;-80
2022/09/27 06:30:48;;;;;;;;;;;7.90;99.90;;;;;;5036644;28;19952;-84
2022/09/27 06:33:15;;;;;;;;;;;7.80;99.90;;;;;;5037440;28;19913;-79
2022/09/27 06:35:44;;;;;;;;;;;7.90;99.90;;;;;;5042471;28;20403;-81
2022/09/27 06:38:11;;;;;;;;;;;7.80;99.90;;;;;;5047513;28;19928;-82
2022/09/27 06:40:37;;;;;;;;;;;7.80;99.90;;;;;;5048776;28;19913;-81
2022/09/27 06:43:09;;;;;;;;;;;7.90;99.90;;;;;;5050713;28;20716;-81
2022/09/27 06:45:35;;;;;;;;;;;7.80;99.90;;;;;;5051192;28;20406;-82
2022/09/27 06:48:01;;;;;;;;;;;7.80;99.90;;;;;;5051462;28;19908;-81
2022/09/27 06:50:28;;;;;;;;;;;7.70;99.90;;;;;;5067114;28;19983;-81
2022/09/27 06:52:54;;;;;;;;;;;7.50;99.90;;;;;;5046180;28;20017;-83
2022/09/27 06:55:19;;;;;;;;;;;7.40;99.90;;;;;;5043885;28;20320;-83
2022/09/27 07:00:29;;;;;;;;;;;7.40;99.90;;;;;;5041722;28;19958;-83
2022/09/27 07:02:59;;;;;;;;;;;7.40;99.90;;;;;;5048733;28;19959;-82
2022/09/27 07:05:26;;;;;;;;;;;7.40;99.90;;;;;;5039508;28;19912;-90
2022/09/27 07:07:56;;;;;;;;;;;7.50;99.90;;;;;;5043724;28;19948;-89
2022/09/27 07:10:25;;;;;;;;;;;7.40;99.90;;;;;;5034165;28;19917;-92
2022/09/27 07:12:51;;;;;;;;;;;7.40;99.90;;;;;;5035729;28;19917;-92
2022/09/27 07:15:19;;;;;;;;;;;7.50;99.90;;;;;;5052667;28;19911;-91
2022/09/27 07:17:45;;;;;;;;;;;7.50;99.90;;;;;;5036229;28;19920;-92
2022/09/27 07:20:11;;;;;;;;;;;7.40;99.90;;;;;;5042928;28;19917;-93
2022/09/27 07:22:41;;;;;;;;;;;7.50;99.90;;;;;;5038623;28;19909;-88
2022/09/27 07:25:07;;;;;;;;;;;7.40;99.90;;;;;;5039989;28;19935;-89
2022/09/27 07:27:33;;;;;;;;;;;7.40;99.90;;;;;;5040046;28;20372;-89
2022/09/27 07:29:59;;;;;;;;;;;7.40;99.90;;;;;;5044763;28;19955;-89
2022/09/27 07:32:25;;;;;;;;;;;7.50;99.90;;;;;;5048662;28;19948;-88
2022/09/27 07:34:50;;;;;;;;;;;7.60;99.90;;;;;;5041078;28;19992;-86
2022/09/27 07:37:16;;;;;;;;;;;7.80;99.90;;;;;;5043350;28;19999;-89
2022/09/27 07:39:42;;;;;;;;;;;7.90;99.90;;;;;;5048153;28;19948;-88
2022/09/27 07:42:08;;;;;;;;;;;8.10;99.90;;;;;;5033890;28;19924;-89
2022/09/27 07:44:34;;;;;;;;;;;8.30;99.90;;;;;;5036872;28;19978;-88
2022/09/27 07:46:59;;;;;;;;;;;8.60;99.90;;;;;;5042615;28;20368;-89
2022/09/27 07:49:25;;;;;;;;;;;8.80;99.90;;;;;;5023244;28;19917;-88
2022/09/27 07:51:51;;;;;;;;;;;8.60;99.90;;;;;;5045124;28;20296;-84
2022/09/27 07:54:16;;;;;;;;;;;8.70;99.90;;;;;;5046513;28;19947;-86
2022/09/27 07:56:43;;;;;;;;;;;8.60;99.90;;;;;;5042233;28;19913;-86
2022/09/27 07:59:09;;;;;;;;;;;8.60;99.90;;;;;;5046055;28;19912;-86
2022/09/27 08:01:35;;;;;;;;;;;8.70;99.90;;;;;;5034405;28;19917;-85
2022/09/27 08:04:00;;;;;;;;;;;8.70;99.90;;;;;;5037779;28;19946;-85
2022/09/27 08:06:26;;;;;;;;;;;8.60;99.90;;;;;;5039194;28;20004;-85
2022/09/27 08:08:51;;;;;;;;;;;8.70;99.90;;;;;;5047024;28;20086;-82
2022/09/27 08:11:17;;;;;;;;;;;8.60;99.90;;;;;;5044870;28;19924;-84
2022/09/27 08:13:44;;;;;;;;;;;8.60;99.90;;;;;;5044881;28;19917;-85
2022/09/27 08:16:10;;;;;;;;;;;8.70;99.90;;;;;;5047680;28;19939;-86
2022/09/27 08:18:36;;;;;;;;;;;8.70;99.90;;;;;;5048209;28;19939;-85
2022/09/27 08:21:02;;;;;;;;;;;8.70;99.90;;;;;;5048445;28;19916;-85
2022/09/27 08:23:27;;;;;;;;;;;8.60;99.90;;;;;;5042607;28;19916;-90
2022/09/27 08:25:53;;;;;;;;;;;8.60;99.90;;;;;;5015991;28;19917;-83
2022/09/27 08:28:21;;;;;;;;;;;8.80;99.90;;;;;;5031216;28;19932;-89
2022/09/27 08:30:50;;;;;;;;;;;9.00;99.90;;;;;;5033453;28;19913;-86
2022/09/27 08:33:15;;;;;;;;;;;9.00;99.90;;;;;;5041023;28;20018;-87
2022/09/27 08:35:41;;;;;;;;;;;9.10;99.90;;;;;;5036118;28;20059;-86
2022/09/27 08:38:08;;;;;;;;;;;9.00;99.90;;;;;;5038028;28;19913;-89
2022/09/27 08:40:36;;;;;;;;;;;9.00;99.90;;;;;;5039520;28;20284;-86
2022/09/27 08:43:09;;;;;;;;;;;9.10;99.90;;;;;;5042131;28;19921;-86
2022/09/27 08:45:38;;;;;;;;;;;9.00;99.90;;;;;;5044906;28;19919;-85
2022/09/27 08:48:04;;;;;;;;;;;9.00;99.90;;;;;;5043648;28;19925;-84
2022/09/27 08:50:40;;;;;;;;;;;8.90;99.90;;;;;;5037705;28;19915;-85
2022/09/27 08:53:12;;;;;;;;;;;9.00;99.90;;;;;;5042846;28;19943;-84
2022/09/27 08:55:40;;;;;;;;;;;9.00;99.90;;;;;;5042850;28;19971;-84
2022/09/27 08:58:15;;;;;;;;;;;9.00;99.90;;;;;;5041450;28;19916;-85
2022/09/27 09:00:41;;;;;;;;;;;9.00;99.90;;;;;;5038919;28;19978;-83
2022/09/27 09:03:17;;;;;;;;;;;9.00;99.90;;;;;;5047783;28;19912;-84
2022/09/27 09:05:47;;;;;;;;;;;9.00;99.90;;;;;;5047833;28;19916;-84
2022/09/27 09:08:12;;;;;;;;;;;9.00;99.90;;;;;;5050944;28;19921;-84
2022/09/27 09:13:32;;;;;;;;;;;9.50;99.90;;;;;;5049721;28;19966;-84
2022/09/27 09:16:16;;;;;;;;;;;9.50;99.90;;;;;;5045158;28;19917;-84
2022/09/27 09:18:44;;;;;;;;;;;9.20;99.90;;;;;;5044760;28;19947;-84
2022/09/27 09:21:27;;;;;;;;;;;9.30;99.90;;;;;;5043335;28;19919;-83
2022/09/27 09:24:05;;;;;;;;;;;9.00;99.90;;;;;;5050197;28;19936;-85
2022/09/27 09:26:38;;;;;;;;;;;8.70;99.90;;;;;;5047711;28;19917;-85
2022/09/27 09:29:13;;;;;;;;;;;9.00;99.90;;;;;;5039643;28;19913;-83
2022/09/27 09:31:57;;;;;;;;;;;9.50;99.90;;;;;;5038302;28;19967;-83
2022/09/27 09:34:28;;;;;;;;;;;9.90;99.90;;;;;;5049803;28;19920;-82
2022/09/27 09:36:56;;;;;;;;;;;10.30;99.90;;;;;;5044603;28;20676;-84
2022/09/27 09:39:40;;;;;;;;;;;10.10;99.90;;;;;;5041711;28;19913;-84
2022/09/27 09:42:05;;;;;;;;;;;9.70;99.90;;;;;;5059141;28;19912;-84
2022/09/27 09:44:53;;;;;;;;;;;10.30;99.90;;;;;;5066931;28;19932;-84
2022/09/27 09:47:28;;;;;;;;;;;10.50;99.90;;;;;;5051636;28;19952;-83
2022/09/27 09:49:57;;;;;;;;;;;9.90;99.90;;;;;;5042514;28;20320;-85
2022/09/27 09:52:25;;;;;;;;;;;9.60;99.90;;;;;;5041227;28;19991;-85
2022/09/27 09:54:54;;;;;;;;;;;9.50;99.90;;;;;;5042810;28;19970;-84
2022/09/27 09:57:20;;;;;;;;;;;9.30;99.90;;;;;;5044135;28;19916;-87
2022/09/27 09:59:53;;;;;;;;;;;9.00;99.90;;;;;;5043090;28;20386;-87
2022/09/27 10:02:37;;;;;;;;;;;9.00;99.90;;;;;;5040368;28;19927;-86
2022/09/27 10:05:03;;;;;;;;;;;9.10;99.90;;;;;;5045051;28;20015;-85
2022/09/27 10:07:30;;;;;;;;;;;9.20;99.90;;;;;;5051636;28;20028;-86
2022/09/27 10:09:58;;;;;;;;;;;9.40;99.90;;;;;;5048046;28;19912;-86
2022/09/27 10:12:24;;;;;;;;;;;9.20;99.90;;;;;;5045749;28;20430;-86
2022/09/27 10:14:50;;;;;;;;;;;9.10;99.90;;;;;;5044487;28;19916;-85
2022/09/27 10:17:18;;;;;;;;;;;9.10;99.90;;;;;;5045320;28;19919;-85
2022/09/27 10:19:47;;;;;;;;;;;9.10;99.90;;;;;;5050173;28;19943;-85
2022/09/27 10:22:48;;;;;;;;;;;9.00;99.90;;;;;;5048074;28;19917;-85
2022/09/27 10:25:15;;;;;;;;;;;9.00;99.90;;;;;;4987362;28;19921;-85
2022/09/27 10:27:42;;;;;;;;;;;9.20;99.90;;;;;;5037445;28;19966;-84
2022/09/27 10:30:40;;;;;;;;;;;9.40;99.90;;;;;;5044482;28;19913;-85
2022/09/27 10:33:14;;;;;;;;;;;9.40;99.90;;;;;;5020777;28;19917;-84
2022/09/27 10:35:44;;;;;;;;;;;9.50;99.90;;;;;;5041300;28;19947;-85
2022/09/27 10:38:20;;;;;;;;;;;9.60;99.90;;;;;;5045764;28;19945;-85
2022/09/27 10:40:46;;;;;;;;;;;9.70;99.90;;;;;;5047569;28;20498;-85
2022/09/27 10:43:23;;;;;;;;;;;9.70;99.90;;;;;;5048600;28;19924;-85
2022/09/27 10:45:49;;;;;;;;;;;9.80;99.90;;;;;;5039697;28;19963;-85
2022/09/27 10:48:22;;;;;;;;;;;9.70;99.90;;;;;;5049524;28;19924;-85
2022/09/27 10:51:01;;;;;;;;;;;9.70;99.90;;;;;;5049284;28;20011;-83
2022/09/27 10:53:27;;;;;;;;;;;9.60;99.90;;;;;;5047461;28;19917;-80
2022/09/27 10:55:53;;;;;;;;;;;9.30;99.90;;;;;;5046609;28;19917;-91
2022/09/27 10:58:39;;;;;;;;;;;9.50;99.90;;;;;;5064539;28;19924;-84
2022/09/27 11:01:06;;;;;;;;;;;9.60;99.90;;;;;;5036328;28;19924;-82
2022/09/27 11:03:36;;;;;;;;;;;9.80;99.90;;;;;;5044560;28;19909;-83
2022/09/27 11:06:38;;;;;;;;;;;10.10;99.90;;;;;;5046832;28;19913;-85
2022/09/27 11:09:15;;;;;;;;;;;10.60;99.90;;;;;;4956437;28;20033;-82
2022/09/27 11:11:42;;;;;;;;;;;10.80;99.90;;;;;;5025725;28;20021;-84
2022/09/27 11:14:17;;;;;;;;;;;11.30;99.90;;;;;;5040006;28;20367;-83
2022/09/27 11:17:02;;;;;;;;;;;11.50;99.90;;;;;;5038321;28;20368;-82
2022/09/27 11:19:30;;;;;;;;;;;11.20;99.90;;;;;;5033696;28;19971;-81
2022/09/27 11:22:13;;;;;;;;;;;11.10;99.90;;;;;;5037247;28;19909;-82
2022/09/27 11:24:47;;;;;;;;;;;10.70;99.90;;;;;;5046003;28;19955;-83
2022/09/27 11:27:15;;;;;;;;;;;10.70;99.90;;;;;;5042187;28;19959;-83
2022/09/27 11:30:04;;;;;;;;;;;11.30;99.90;;;;;;5044641;28;20011;-84
2022/09/27 11:32:43;;;;;;;;;;;11.30;99.90;;;;;;5023821;28;19913;-83
2022/09/27 11:35:15;;;;;;;;;;;11.20;99.90;;;;;;5035145;28;19952;-84
2022/09/27 11:37:41;;;;;;;;;;;11.20;99.90;;;;;;5032038;28;20047;-83
2022/09/27 11:40:17;;;;;;;;;;;11.00;99.90;;;;;;5032182;28;20292;-85
2022/09/27 11:42:54;;;;;;;;;;;10.70;99.90;;;;;;5122374;27;20393;-81
2022/09/27 11:45:26;;;;;;;;;;;10.70;99.90;;;;;;5116377;28;19916;-84
2022/09/27 11:48:10;;;;;;;;;;;10.70;99.90;;;;;;5118299;28;19926;-80
2022/09/27 11:50:44;;;;;;;;;;;11.00;99.90;;;;;;5112516;28;19943;-81
2022/09/27 11:53:27;;;;;;;;;;;12.00;99.90;;;;;;5119134;28;20342;-83
2022/09/27 11:56:15;;;;;;;;;;;12.10;99.90;;;;;;5113677;28;19915;-83
2022/09/27 11:58:59;;;;;;;;;;;11.80;97.50;;;;;;5106254;28;19912;-83
2022/09/27 12:01:31;;;;;;;;;;;11.80;99.90;;;;;;5108963;27;19920;-82
2022/09/27 12:03:57;;;;;;;;;;;11.40;99.90;;;;;;5091459;28;19918;-83
2022/09/27 12:06:32;;;;;;;;;;;12.70;99.90;;;;;;5089890;28;19919;-83
2022/09/27 12:09:04;;;;;;;;;;;13.10;99.90;;;;;;5096075;28;19920;-83
2022/09/27 12:11:29;;;;;;;;;;;13.10;97.10;;;;;;5085018;28;19982;-82
2022/09/27 12:14:01;;;;;;;;;;;13.80;93.00;;;;;;5089165;28;19951;-82
2022/09/27 12:16:29;;;;;;;;;;;15.00;91.50;;;;;;5090043;28;19973;-82
2022/09/27 12:18:55;;;;;;;;;;;13.60;90.70;;;;;;5088812;28;19920;-82
2022/09/27 12:21:21;;;;;;;;;;;12.40;89.20;;;;;;5084884;28;19924;-82
2022/09/27 12:23:47;;;;;;;;;;;12.70;97.10;;;;;;5088825;28;19999;-83
2022/09/27 12:26:18;;;;;;;;;;;12.60;91.30;;;;;;5086493;28;20049;-81
2022/09/27 12:29:16;;;;;;;;;;;12.90;90.90;;;;;;5090012;28;19923;-80
2022/09/27 12:31:45;;;;;;;;;;;14.20;91.20;;;;;;5072930;28;20421;-81
2022/09/27 12:34:19;;;;;;;;;;;14.50;79.80;;;;;;5087982;28;19916;-80
2022/09/27 12:36:49;;;;;;;;;;;14.30;89.50;;;;;;5095214;28;19923;-79
2022/09/27 12:39:18;;;;;;;;;;;16.20;79.80;;;;;;5089107;28;19999;-81
2022/09/27 12:41:49;;;;;;;;;;;14.70;76.50;;;;;;5090856;28;19970;-81
2022/09/27 12:44:15;;;;;;;;;;;13.60;74.40;;;;;;5088969;28;19927;-80
2022/09/27 12:46:59;;;;;;;;;;;14.00;77.40;;;;;;5095382;28;19927;-80
2022/09/27 12:49:37;;;;;;;;;;;13.20;81.30;;;;;;5090830;28;19958;-80
2022/09/27 12:52:06;;;;;;;;;;;13.00;79.40;;;;;;5088567;28;19922;-81
2022/09/27 12:54:32;;;;;;;;;;;13.10;80.40;;;;;;5091162;28;20039;-80
2022/09/27 12:56:58;;;;;;;;;;;13.00;83.60;;;;;;5072853;28;20022;-80
2022/09/27 12:59:37;;;;;;;;;;;12.90;85.10;;;;;;5076250;28;19919;-80
2022/09/27 13:02:11;;;;;;;;;;;12.70;85.80;;;;;;5058290;28;19921;-81
2022/09/27 13:04:43;;;;;;;;;;;12.10;86.10;;;;;;5052033;28;19964;-79
2022/09/27 13:07:21;;;;;;;;;;;12.00;90.70;;;;;;5076822;28;20009;-80
2022/09/27 13:10:10;;;;;;;;;;;12.20;91.60;;;;;;5055492;28;19939;-80
2022/09/27 13:12:37;;;;;;;;;;;11.80;91.30;;;;;;5019830;28;19999;-82
2022/09/27 13:15:05;;;;;;;;;;;11.90;89.30;;;;;;5052563;28;19913;-80
2022/09/27 13:17:41;;;;;;;;;;;11.70;90.20;;;;;;5060122;28;20011;-80
2022/09/27 13:20:25;;;;;;;;;;;11.70;89.80;;;;;;5051202;28;19927;-79
2022/09/27 13:22:50;;;;;;;;;;;11.50;91.30;;;;;;5063288;28;19916;-80
2022/09/27 13:25:34;;;;;;;;;;;11.30;93.50;;;;;;5037630;28;20333;-80
2022/09/27 13:28:01;;;;;;;;;;;11.10;95.50;;;;;;5051463;28;19952;-80
2022/09/27 13:30:26;;;;;;;;;;;11.00;96.00;;;;;;5062093;28;19982;-78
2022/09/27 13:33:15;;;;;;;;;;;10.80;96.30;;;;;;5074526;28;19901;-79
2022/09/27 13:35:42;;;;;;;;;;;10.80;97.50;;;;;;5082710;28;19917;-80
2022/09/27 13:38:21;;;;;;;;;;;10.80;99.50;;;;;;5077340;28;19920;-81
2022/09/27 13:40:48;;;;;;;;;;;10.90;98.90;;;;;;5050612;28;19928;-80
2022/09/27 13:43:40;;;;;;;;;;;11.00;97.50;;;;;;5058152;28;19913;-80
2022/09/27 13:46:08;;;;;;;;;;;10.90;96.60;;;;;;5091192;28;19916;-79
2022/09/27 13:48:36;;;;;;;;;;;10.80;99.90;;;;;;5057389;28;19912;-79
2022/09/27 13:51:05;;;;;;;;;;;10.60;99.90;;;;;;5058178;28;19951;-79
2022/09/27 13:53:33;;;;;;;;;;;10.50;99.90;;;;;;5060881;28;20456;-79
2022/09/27 13:55:59;;;;;;;;;;;10.20;99.90;;;;;;5056331;28;19913;-78
2022/09/27 13:58:41;;;;;;;;;;;10.20;99.90;;;;;;5089895;28;20015;-80
2022/09/27 14:01:13;;;;;;;;;;;10.20;99.90;;;;;;5050579;28;19925;-79
2022/09/27 14:03:52;;;;;;;;;;;10.50;99.90;;;;;;5049941;28;19939;-79
2022/09/27 14:06:25;;;;;;;;;;;10.80;99.90;;;;;;5053836;28;20409;-79
2022/09/27 14:08:55;;;;;;;;;;;12.00;99.90;;;;;;5060670;28;19916;-79
2022/09/27 14:11:24;;;;;;;;;;;12.60;99.90;;;;;;5054770;28;19924;-79
2022/09/27 14:13:51;;;;;;;;;;;12.00;99.90;;;;;;5056953;28;19924;-80
2022/09/27 14:16:17;;;;;;;;;;;10.90;99.90;;;;;;5057904;28;19921;-79
2022/09/27 14:18:49;;;;;;;;;;;10.70;99.90;;;;;;5053465;28;19921;-79
2022/09/27 14:21:32;;;;;;;;;;;10.50;99.90;;;;;;5058179;28;19927;-78
2022/09/27 14:24:16;;;;;;;;;;;10.20;99.90;;;;;;5053113;28;20271;-79
2022/09/27 14:26:42;;;;;;;;;;;10.10;99.90;;;;;;5057164;28;19924;-79
2022/09/27 14:29:18;;;;;;;;;;;10.10;99.90;;;;;;5057299;28;19916;-80
2022/09/27 14:31:43;;;;;;;;;;;10.10;99.90;;;;;;5065379;28;19921;-79
2022/09/27 14:34:12;;;;;;;;;;;10.10;99.90;;;;;;5071652;28;19940;-79
2022/09/27 14:39:30;;;;;;;;;;;10.00;99.90;;;;;;5077449;28;19966;-79
2022/09/27 14:41:55;;;;;;;;;;;10.00;99.90;;;;;;5074665;28;20005;-79
2022/09/27 14:44:21;;;;;;;;;;;9.80;99.90;;;;;;5080013;28;19967;-79
2022/09/27 14:47:05;;;;;;;;;;;9.70;99.90;;;;;;5078817;28;19923;-79
2022/09/27 14:49:31;;;;;;;;;;;9.70;99.90;;;;;;5069094;28;19921;-79
2022/09/27 14:51:58;;;;;;;;;;;9.70;99.90;;;;;;5092797;28;19920;-79